createdAt,value
2018-03-17T00:01:36.828Z,15.10
2018-03-17T00:04:04.496Z,16.03
2018-03-17T00:06:32.365Z,14.70
2018-03-17T00:09:00.024Z,15.27
2018-03-17T00:11:27.886Z,16.80
2018-03-17T00:13:55.543Z,15.00
2018-03-17T00:16:23.313Z,16.83
2018-03-17T00:18:51.141Z,16.63
2018-03-17T00:21:19.148Z,15.90
2018-03-17T00:23:46.904Z,15.17
2018-03-17T00:26:14.676Z,16.30
2018-03-17T00:28:42.331Z,17.30
2018-03-17T00:31:10.064Z,15.20
2018-03-17T00:33:37.969Z,17.07
2018-03-17T00:36:05.733Z,16.57
2018-03-17T00:38:33.495Z,14.90
2018-03-17T00:41:01.242Z,16.10
2018-03-17T00:43:28.970Z,16.53
2018-03-17T00:45:56.794Z,16.20
2018-03-17T00:48:24.759Z,17.93
2018-03-17T00:50:52.569Z,18.07
2018-03-17T00:53:20.286Z,18.33
2018-03-17T00:55:48.222Z,20.47
2018-03-17T00:58:15.966Z,19.07
2018-03-17T01:00:43.787Z,18.60
2018-03-17T01:03:11.606Z,19.47
2018-03-17T01:05:39.423Z,18.17
2018-03-17T01:08:07.384Z,18.40
2018-03-17T01:10:35.273Z,19.43
2018-03-17T01:13:03.119Z,19.07
2018-03-17T01:15:30.783Z,18.80
2018-03-17T01:17:58.623Z,19.97
2018-03-17T01:20:26.367Z,21.00
2018-03-17T01:22:54.246Z,19.80
2018-03-17T01:25:22.042Z,21.27
2018-03-17T01:27:49.898Z,21.57
2018-03-17T01:30:17.764Z,21.43
2018-03-17T01:32:45.498Z,21.80
2018-03-17T01:35:13.412Z,21.17
2018-03-17T01:37:41.272Z,19.57
2018-03-17T01:40:09.037Z,19.87
2018-03-17T01:42:36.865Z,20.97
2018-03-17T01:45:04.668Z,19.70
2018-03-17T01:47:32.535Z,21.60
2018-03-17T01:50:00.292Z,21.40
2018-03-17T01:52:28.062Z,21.83
2018-03-17T01:54:55.720Z,22.33
2018-03-17T01:57:23.493Z,20.17
2018-03-17T01:59:51.252Z,21.40
2018-03-17T02:02:19.120Z,19.50
2018-03-17T02:04:46.875Z,20.13
2018-03-17T02:07:14.754Z,21.80
2018-03-17T02:09:42.483Z,19.10
2018-03-17T02:12:10.178Z,10.60
2018-03-17T02:14:37.833Z,15.97
2018-03-17T02:17:05.656Z,15.47
2018-03-17T02:19:33.572Z,17.97
2018-03-17T02:22:01.287Z,14.57
2018-03-17T02:24:29.104Z,17.97
2018-03-17T02:26:56.826Z,8.20
2018-03-17T02:29:24.451Z,17.83
2018-03-17T02:31:52.150Z,17.30
2018-03-17T02:34:19.953Z,14.03
2018-03-17T02:36:47.616Z,17.17
2018-03-17T02:39:15.323Z,15.20
2018-03-17T02:41:43.048Z,16.90
2018-03-17T02:44:10.908Z,16.63
2018-03-17T02:46:38.674Z,11.63
2018-03-17T02:49:06.638Z,16.50
2018-03-17T02:51:34.405Z,16.03
2018-03-17T02:54:02.174Z,18.73
2018-03-17T02:56:29.936Z,17.43
2018-03-17T02:58:57.777Z,14.03
2018-03-17T03:01:25.572Z,15.37
2018-03-17T03:03:53.535Z,16.80
2018-03-17T03:06:21.297Z,12.77
2018-03-17T03:08:49.140Z,18.20
2018-03-17T03:11:16.930Z,16.67
2018-03-17T03:13:44.798Z,17.30
2018-03-17T03:16:12.456Z,7.10
2018-03-17T03:18:40.217Z,19.60
2018-03-17T03:21:07.985Z,19.90
2018-03-17T03:23:35.956Z,18.60
2018-03-17T03:26:03.609Z,18.80
2018-03-17T03:28:31.444Z,17.10
2018-03-17T03:30:59.153Z,18.10
2018-03-17T03:33:27.073Z,16.70
2018-03-17T03:35:54.767Z,18.40
2018-03-17T03:38:22.434Z,21.20
2018-03-17T03:40:50.149Z,21.23
2018-03-17T03:43:17.966Z,20.50
2018-03-17T03:45:45.630Z,20.80
2018-03-17T03:48:13.392Z,18.90
2018-03-17T03:50:41.157Z,21.80
2018-03-17T03:53:08.984Z,18.23
2018-03-17T03:55:36.745Z,20.40
2018-03-17T03:58:04.551Z,23.00
2018-03-17T04:00:32.156Z,21.60
2018-03-17T04:02:59.811Z,21.10
2018-03-17T04:05:27.588Z,18.53
2018-03-17T04:07:55.301Z,19.23
2018-03-17T04:10:23.019Z,19.97
2018-03-17T04:12:50.830Z,20.50
2018-03-17T04:15:18.595Z,21.73
2018-03-17T04:17:46.435Z,21.53
2018-03-17T04:20:14.152Z,21.40
2018-03-17T04:22:41.943Z,20.37
2018-03-17T04:25:09.751Z,21.37
2018-03-17T04:27:37.517Z,19.70
2018-03-17T04:30:05.284Z,20.37
2018-03-17T04:32:33.104Z,16.70
2018-03-17T04:35:00.703Z,20.00
2018-03-17T04:37:28.358Z,20.67
2018-03-17T04:39:56.032Z,18.57
2018-03-17T04:42:23.874Z,17.80
2018-03-17T04:44:51.614Z,17.70
2018-03-17T04:47:19.577Z,17.30
2018-03-17T04:49:47.294Z,19.43
2018-03-17T04:52:15.006Z,20.37
2018-03-17T04:54:42.924Z,18.53
2018-03-17T04:57:10.888Z,19.03
2018-03-17T04:59:38.654Z,8.23
2018-03-17T05:02:06.600Z,16.33
2018-03-17T05:04:34.497Z,17.30
2018-03-17T05:07:02.256Z,19.60
2018-03-17T05:09:30.023Z,18.67
2018-03-17T05:11:57.671Z,15.53
2018-03-17T05:14:25.376Z,17.50
2018-03-17T05:16:53.320Z,15.23
2018-03-17T05:19:21.180Z,17.80
2018-03-17T05:21:48.846Z,13.50
2018-03-17T05:24:16.612Z,15.83
2018-03-17T05:26:44.260Z,15.20
2018-03-17T05:29:12.006Z,19.17
2018-03-17T05:31:39.796Z,11.07
2018-03-17T05:34:07.508Z,19.37
2018-03-17T05:36:35.324Z,18.73
2018-03-17T05:39:03.192Z,14.93
2018-03-17T05:41:30.955Z,16.87
2018-03-17T05:43:58.927Z,20.07
2018-03-17T05:46:26.688Z,20.87
2018-03-17T05:48:54.559Z,17.60
2018-03-17T05:51:22.316Z,18.87
2018-03-17T05:53:50.082Z,15.57
2018-03-17T05:56:17.849Z,16.23
2018-03-17T05:58:45.614Z,19.03
2018-03-17T06:01:13.377Z,17.47
2018-03-17T06:03:41.140Z,14.73
2018-03-17T06:06:08.917Z,14.47
2018-03-17T06:08:36.726Z,16.37
2018-03-17T06:11:04.539Z,14.77
2018-03-17T06:13:32.483Z,17.27
2018-03-17T06:16:00.173Z,20.80
2018-03-17T06:18:28.023Z,8.50
2018-03-17T06:20:55.798Z,18.53
2018-03-17T06:23:23.665Z,16.77
2018-03-17T06:25:51.490Z,10.70
2018-03-17T06:28:19.406Z,14.93
2018-03-17T06:30:47.304Z,20.47
2018-03-17T06:33:15.135Z,14.70
2018-03-17T06:35:42.973Z,16.57
2018-03-17T06:38:10.651Z,20.83
2018-03-17T06:40:38.422Z,16.57
2018-03-17T06:43:06.291Z,18.50
2018-03-17T06:45:34.053Z,18.20
2018-03-17T06:48:01.880Z,19.87
2018-03-17T06:50:29.685Z,18.37
2018-03-17T06:52:57.450Z,18.33
2018-03-17T06:55:25.218Z,15.00
2018-03-17T06:57:52.978Z,14.60
2018-03-17T07:00:20.844Z,18.97
2018-03-17T07:02:48.609Z,11.63
2018-03-17T07:05:16.474Z,17.17
2018-03-17T07:07:44.240Z,12.37
2018-03-17T07:10:12.057Z,7.43
2018-03-17T07:12:39.769Z,14.43
2018-03-17T07:15:07.635Z,17.67
2018-03-17T07:17:35.501Z,16.97
2018-03-17T07:20:03.285Z,15.40
2018-03-17T07:22:30.977Z,12.90
2018-03-17T07:24:58.898Z,10.00
2018-03-17T07:27:26.613Z,7.53
2018-03-17T07:29:54.428Z,14.20
2018-03-17T07:32:22.088Z,6.90
2018-03-17T07:34:49.935Z,7.47
2018-03-17T07:37:17.682Z,12.93
2018-03-17T07:39:45.449Z,14.93
2018-03-17T07:42:13.206Z,13.57
2018-03-17T07:44:40.978Z,17.07
2018-03-17T07:47:08.836Z,15.20
2018-03-17T07:49:36.532Z,13.20
2018-03-17T07:52:04.270Z,15.97
2018-03-17T07:54:32.022Z,14.10
2018-03-17T07:56:59.934Z,13.70
2018-03-17T07:59:27.745Z,15.00
2018-03-17T08:01:55.668Z,14.73
2018-03-17T08:04:23.430Z,13.60
2018-03-17T08:06:51.145Z,8.53
2018-03-17T08:09:18.854Z,15.40
2018-03-17T08:11:46.570Z,14.57
2018-03-17T08:14:14.277Z,10.37
2018-03-17T08:16:42.025Z,11.63
2018-03-17T08:19:09.814Z,12.10
2018-03-17T08:21:39.648Z,8.03
2018-03-17T08:24:07.492Z,11.10
2018-03-17T08:26:35.255Z,17.70
2018-03-17T08:29:02.958Z,7.73
2018-03-17T08:31:30.784Z,15.50
2018-03-17T08:33:58.614Z,16.30
2018-03-17T08:36:26.520Z,16.17
2018-03-17T08:38:54.180Z,16.90
2018-03-17T08:41:21.935Z,16.67
2018-03-17T08:43:49.902Z,19.77
2018-03-17T08:46:17.796Z,17.70
2018-03-17T08:48:45.470Z,13.07
2018-03-17T08:51:13.211Z,12.60
2018-03-17T08:53:40.892Z,14.80
2018-03-17T08:56:08.692Z,18.27
2018-03-17T08:58:36.497Z,14.53
2018-03-17T09:01:04.260Z,16.13
2018-03-17T09:03:32.026Z,13.13
2018-03-17T09:05:59.877Z,13.93
2018-03-17T09:08:27.519Z,9.43
2018-03-17T09:10:55.241Z,16.20
2018-03-17T09:13:23.291Z,12.40
2018-03-17T09:15:51.162Z,15.50
2018-03-17T09:18:18.792Z,14.90
2018-03-17T09:20:46.790Z,18.47
2018-03-17T09:23:14.552Z,14.23
2018-03-17T09:25:42.319Z,10.90
2018-03-17T09:28:10.038Z,16.33
2018-03-17T09:30:37.951Z,16.20
2018-03-17T09:33:05.607Z,14.10
2018-03-17T09:35:33.582Z,12.90
2018-03-17T09:38:01.233Z,17.63
2018-03-17T09:40:29.001Z,18.07
2018-03-17T09:42:56.974Z,15.07
2018-03-17T09:45:24.840Z,16.43
2018-03-17T09:47:52.466Z,16.13
2018-03-17T09:50:20.131Z,14.60
2018-03-17T09:52:48.044Z,9.70
2018-03-17T09:55:15.903Z,15.87
2018-03-17T09:57:43.728Z,13.80
2018-03-17T10:00:11.468Z,12.20
2018-03-17T10:02:39.291Z,12.77
2018-03-17T10:05:07.153Z,13.57
2018-03-17T10:07:34.814Z,13.73
2018-03-17T10:10:02.805Z,10.73
2018-03-17T10:12:30.759Z,12.73
2018-03-17T10:14:58.409Z,10.00
2018-03-17T10:17:26.149Z,14.87
2018-03-17T10:19:54.424Z,13.73
2018-03-17T10:22:22.223Z,6.40
2018-03-17T10:24:50.092Z,13.23
2018-03-17T10:27:17.850Z,15.70
2018-03-17T10:29:45.625Z,15.20
2018-03-17T10:32:13.487Z,11.37
2018-03-17T10:34:41.503Z,9.17
2018-03-17T10:37:09.139Z,9.97
2018-03-17T10:39:36.828Z,10.17
2018-03-17T10:42:05.011Z,15.00
2018-03-17T10:44:32.713Z,11.27
2018-03-17T10:47:00.588Z,14.40
2018-03-17T10:49:28.420Z,13.50
2018-03-17T10:51:58.210Z,11.40
2018-03-17T10:54:27.992Z,14.60
2018-03-17T10:56:57.225Z,8.73
2018-03-17T10:59:25.140Z,14.70
2018-03-17T11:01:53.110Z,13.27
2018-03-17T11:04:20.981Z,10.13
2018-03-17T11:06:48.947Z,7.33
2018-03-17T11:09:17.020Z,11.60
2018-03-17T11:11:44.783Z,12.70
2018-03-17T11:14:12.752Z,13.33
2018-03-17T11:16:40.615Z,15.43
2018-03-17T11:19:08.303Z,16.70
2018-03-17T11:21:36.125Z,6.93
2018-03-17T11:24:04.141Z,14.20
2018-03-17T11:26:32.001Z,12.83
2018-03-17T11:28:59.950Z,14.47
2018-03-17T11:31:27.813Z,13.10
2018-03-17T11:33:55.536Z,8.70
2018-03-17T11:36:23.288Z,7.33
2018-03-17T11:38:51.000Z,10.77
2018-03-17T11:41:18.720Z,14.73
2018-03-17T11:43:46.457Z,14.30
2018-03-17T11:46:14.196Z,11.03
2018-03-17T11:48:41.867Z,13.30
2018-03-17T11:51:09.641Z,14.77
2018-03-17T11:53:37.388Z,10.67
2018-03-17T11:56:05.257Z,10.00
2018-03-17T11:58:33.016Z,12.60
2018-03-17T12:01:01.090Z,8.33
2018-03-17T12:03:28.765Z,13.80
2018-03-17T12:05:56.412Z,15.07
2018-03-17T12:08:24.176Z,13.17
2018-03-17T12:10:52.048Z,7.87
2018-03-17T12:13:19.904Z,14.90
2018-03-17T12:15:47.570Z,10.80
2018-03-17T12:18:15.794Z,13.43
2018-03-17T12:20:43.517Z,13.93
2018-03-17T12:23:11.382Z,14.03
2018-03-17T12:25:39.247Z,13.80
2018-03-17T12:28:06.873Z,14.03
2018-03-17T12:30:34.683Z,13.37
2018-03-17T12:33:02.288Z,13.23
2018-03-17T12:35:30.149Z,13.57
2018-03-17T12:37:57.898Z,14.87
2018-03-17T12:40:25.650Z,8.32
2018-03-17T12:42:53.287Z,14.57
2018-03-17T12:45:21.053Z,13.10
2018-03-17T12:47:48.689Z,8.00
2018-03-17T12:50:16.581Z,13.57
2018-03-17T12:52:44.346Z,9.73
2018-03-17T12:55:12.254Z,6.30
2018-03-17T12:57:39.977Z,10.97
2018-03-17T13:00:08.036Z,13.73
2018-03-17T13:02:35.917Z,13.15
2018-03-17T13:05:03.839Z,12.88
2018-03-17T13:07:31.749Z,9.77
2018-03-17T13:09:59.613Z,12.05
2018-03-17T13:12:27.324Z,13.30
2018-03-17T13:14:55.143Z,11.02
2018-03-17T13:17:22.917Z,13.85
2018-03-17T13:19:50.666Z,13.70
2018-03-17T13:22:18.423Z,15.15
2018-03-17T13:24:46.614Z,12.55
2018-03-17T13:27:26.204Z,7.70
2018-03-17T13:29:54.224Z,10.52
2018-03-17T13:32:33.647Z,11.15
2018-03-17T13:35:01.801Z,13.57
2018-03-17T13:37:38.318Z,9.67
2018-03-17T13:40:12.527Z,9.33
2018-03-17T13:42:40.445Z,14.23
2018-03-17T13:45:08.250Z,10.23
2018-03-17T13:47:35.922Z,14.15
2018-03-17T13:50:03.678Z,11.90
2018-03-17T13:52:31.317Z,14.35
2018-03-17T13:54:59.471Z,13.70
2018-03-17T13:57:27.169Z,14.77
2018-03-17T13:59:55.063Z,11.07
2018-03-17T14:02:22.915Z,13.15
2018-03-17T14:04:50.618Z,9.20
2018-03-17T14:07:18.446Z,12.93
2018-03-17T14:09:46.202Z,14.38
2018-03-17T14:12:14.274Z,12.88
2018-03-17T14:14:42.141Z,13.32
2018-03-17T14:17:09.899Z,14.60
2018-03-17T14:19:37.597Z,12.80
2018-03-17T14:22:05.473Z,13.62
2018-03-17T14:24:33.418Z,13.05
2018-03-17T14:27:01.162Z,7.97
2018-03-17T14:29:28.831Z,8.90
2018-03-17T14:31:58.145Z,12.90
2018-03-17T14:34:25.983Z,13.07
2018-03-17T14:36:53.975Z,10.07
2018-03-17T14:39:21.685Z,8.40
2018-03-17T14:41:49.501Z,12.60
2018-03-17T14:44:17.187Z,11.93
2018-03-17T14:46:45.033Z,14.20
2018-03-17T14:49:12.928Z,11.73
2018-03-17T14:51:41.219Z,12.45
2018-03-17T14:54:09.186Z,9.63
2018-03-17T14:56:37.024Z,12.18
2018-03-17T14:59:04.957Z,10.85
2018-03-17T15:01:32.682Z,10.50
2018-03-17T15:04:00.399Z,11.52
2018-03-17T15:06:28.417Z,6.93
2018-03-17T15:08:56.126Z,12.05
2018-03-17T15:11:23.885Z,8.52
2018-03-17T15:13:51.529Z,9.70
2018-03-17T15:16:19.329Z,10.18
2018-03-17T15:18:46.965Z,10.23
2018-03-17T15:21:14.747Z,6.37
2018-03-17T15:23:42.510Z,11.90
2018-03-17T15:26:10.484Z,11.82
2018-03-17T15:28:38.158Z,11.68
2018-03-17T15:31:06.106Z,12.43
2018-03-17T15:33:33.774Z,9.25
2018-03-17T15:36:01.504Z,12.35
2018-03-17T15:38:29.504Z,13.40
2018-03-17T15:40:57.379Z,13.52
2018-03-17T15:43:25.229Z,12.23
2018-03-17T15:45:53.408Z,12.07
2018-03-17T15:48:21.386Z,13.38
2018-03-17T15:50:49.245Z,8.88
2018-03-17T15:53:24.186Z,10.38
2018-03-17T15:55:54.496Z,10.23
2018-03-17T15:58:24.808Z,10.05
2018-03-17T16:00:55.339Z,10.35
2018-03-17T16:03:25.581Z,14.00
2018-03-17T16:05:56.198Z,9.38
2018-03-17T16:08:26.345Z,13.43
2018-03-17T16:10:57.861Z,13.32
2018-03-17T16:13:27.830Z,13.43
2018-03-17T16:15:58.912Z,16.48
2018-03-17T16:18:29.163Z,15.05
2018-03-17T16:21:00.696Z,14.50
2018-03-17T16:23:31.235Z,13.10
2018-03-17T16:26:02.273Z,8.20
2018-03-17T16:28:34.545Z,8.40
2018-03-17T16:31:05.622Z,13.27
2018-03-17T16:33:36.268Z,12.55
2018-03-17T16:36:08.598Z,8.70
2018-03-17T16:38:38.723Z,13.13
2018-03-17T16:41:08.576Z,15.30
2018-03-17T16:43:41.185Z,13.60
2018-03-17T16:46:12.682Z,10.15
2018-03-17T16:48:44.307Z,9.70
2018-03-17T16:51:14.930Z,8.68
2018-03-17T16:53:45.075Z,10.00
2018-03-17T16:56:15.601Z,15.15
2018-03-17T16:58:45.287Z,13.45
2018-03-17T17:01:16.755Z,12.73
2018-03-17T17:03:47.874Z,14.20
2018-03-17T17:06:19.715Z,16.05
2018-03-17T17:08:49.742Z,14.05
2018-03-17T17:11:19.546Z,12.93
2018-03-17T17:13:49.102Z,12.30
2018-03-17T17:16:19.183Z,8.77
2018-03-17T17:18:48.795Z,12.18
2018-03-17T17:21:18.719Z,13.30
2018-03-17T17:23:49.287Z,13.30
2018-03-17T17:26:17.849Z,13.23
2018-03-17T17:28:47.357Z,13.50
2018-03-17T17:31:22.668Z,12.18
2018-03-17T17:33:53.746Z,14.32
2018-03-17T17:36:23.975Z,14.50
2018-03-17T17:38:53.942Z,14.30
2018-03-17T17:41:24.140Z,12.90
2018-03-17T17:43:57.416Z,14.52
2018-03-17T17:46:27.306Z,13.35
2018-03-17T17:48:59.726Z,13.75
2018-03-17T17:51:29.710Z,8.60
2018-03-17T17:54:01.192Z,11.90
2018-03-17T17:56:31.679Z,15.07
2018-03-17T17:59:01.267Z,14.15
2018-03-17T18:01:35.650Z,14.13
2018-03-17T18:04:05.457Z,14.40
2018-03-17T18:06:36.045Z,11.88
2018-03-17T18:09:07.500Z,12.55
2018-03-17T18:11:40.482Z,13.88
2018-03-17T18:14:09.892Z,14.73
2018-03-17T18:16:39.490Z,11.35
2018-03-17T18:19:10.835Z,9.55
2018-03-17T18:21:41.164Z,11.32
2018-03-17T18:24:10.939Z,12.40
2018-03-17T18:26:41.483Z,14.30
2018-03-17T18:29:11.212Z,11.63
2018-03-17T18:31:43.398Z,13.48
2018-03-17T18:34:14.040Z,12.27
2018-03-17T18:36:43.435Z,13.07
2018-03-17T18:39:13.296Z,12.35
2018-03-17T18:41:42.955Z,13.25
2018-03-17T18:44:12.211Z,9.40
2018-03-17T18:46:41.956Z,12.65
2018-03-17T18:49:12.212Z,12.37
2018-03-17T18:51:42.789Z,5.18
2018-03-17T18:54:12.611Z,12.35
2018-03-17T18:56:42.416Z,11.40
2018-03-17T18:59:12.130Z,12.43
2018-03-17T19:01:42.884Z,11.05
2018-03-17T19:04:13.022Z,9.52
2018-03-17T19:06:44.246Z,11.15
2018-03-17T19:09:15.092Z,13.15
2018-03-17T19:11:45.494Z,13.15
2018-03-17T19:14:16.005Z,12.13
2018-03-17T19:16:47.065Z,11.75
2018-03-17T19:19:16.884Z,9.60
2018-03-17T19:21:48.704Z,12.35
2018-03-17T19:24:18.494Z,12.65
2018-03-17T19:26:50.509Z,13.05
2018-03-17T19:29:25.245Z,11.27
2018-03-17T19:31:55.776Z,11.20
2018-03-17T19:34:26.713Z,11.68
2018-03-17T19:36:58.527Z,13.15
2018-03-17T19:39:28.991Z,14.35
2018-03-17T19:42:00.141Z,13.02
2018-03-17T19:44:28.215Z,12.65
2018-03-17T19:46:57.855Z,10.45
2018-03-17T19:49:29.679Z,14.52
2018-03-17T19:51:59.309Z,12.07
2018-03-17T19:54:30.002Z,10.07
2018-03-17T19:57:01.527Z,11.55
2018-03-17T19:59:31.358Z,10.48
2018-03-17T20:01:59.191Z,12.15
2018-03-17T20:04:28.451Z,8.25
2018-03-17T20:06:58.258Z,11.15
2018-03-17T20:09:28.161Z,9.77
2018-03-17T20:11:56.776Z,12.00
2018-03-17T20:14:26.105Z,12.60
2018-03-17T20:16:56.208Z,8.85
2018-03-17T20:19:26.175Z,7.57
2018-03-17T20:21:57.023Z,7.25
2018-03-17T20:24:26.578Z,12.73
2018-03-17T20:26:57.917Z,13.00
2018-03-17T20:29:27.894Z,10.45
2018-03-17T20:31:58.442Z,13.98
2018-03-17T20:34:29.463Z,11.65
2018-03-17T20:36:57.336Z,6.78
2018-03-17T20:39:27.321Z,10.63
2018-03-17T20:41:56.794Z,9.07
2018-03-17T20:44:26.856Z,6.57
2018-03-17T20:46:54.755Z,13.82
2018-03-17T20:49:22.506Z,11.00
2018-03-17T20:51:50.247Z,11.20
2018-03-17T20:54:19.056Z,6.78
2018-03-17T20:56:46.924Z,11.40
2018-03-17T20:59:14.696Z,7.55
2018-03-17T21:01:42.455Z,11.05
2018-03-17T21:04:10.344Z,8.30
2018-03-17T21:06:38.096Z,11.52
2018-03-17T21:09:05.839Z,11.95
2018-03-17T21:11:33.600Z,11.75
2018-03-17T21:14:01.582Z,8.82
2018-03-17T21:16:29.591Z,8.07
2018-03-17T21:18:57.313Z,10.77
2018-03-17T21:21:25.076Z,11.18
2018-03-17T21:23:52.961Z,10.50
2018-03-17T21:26:21.015Z,8.65
2018-03-17T21:28:48.725Z,10.88
2018-03-17T21:31:16.543Z,11.00
2018-03-17T21:33:44.313Z,9.60
2018-03-17T21:36:12.280Z,13.45
2018-03-17T21:38:40.023Z,6.90
2018-03-17T21:41:07.705Z,10.27
2018-03-17T21:43:35.674Z,7.60
2018-03-17T21:46:03.438Z,13.00
2018-03-17T21:48:31.442Z,9.40
2018-03-17T21:50:59.188Z,6.95
2018-03-17T21:53:26.868Z,12.50
2018-03-17T21:55:54.582Z,10.70
2018-03-17T21:58:22.460Z,8.35
2018-03-17T22:00:50.549Z,12.07
2018-03-17T22:03:18.403Z,12.13
2018-03-17T22:05:46.374Z,9.93
2018-03-17T22:08:14.134Z,7.25
2018-03-17T22:10:41.998Z,11.98
2018-03-17T22:13:09.864Z,14.85
2018-03-17T22:15:37.534Z,14.10
2018-03-17T22:18:05.227Z,18.35
2018-03-17T22:20:33.055Z,8.95
2018-03-17T22:23:00.839Z,8.60
2018-03-17T22:25:28.688Z,5.72
2018-03-17T22:27:56.552Z,13.57
2018-03-17T22:30:24.212Z,11.52
2018-03-17T22:32:51.980Z,13.60
2018-03-17T22:35:19.638Z,6.55
2018-03-17T22:37:47.403Z,8.57
2018-03-17T22:40:15.374Z,14.00
2018-03-17T22:42:43.092Z,13.30
2018-03-17T22:45:10.901Z,14.10
2018-03-17T22:47:38.661Z,11.95
2018-03-17T22:50:06.546Z,13.90
2018-03-17T22:52:34.283Z,16.98
2018-03-17T22:55:02.066Z,15.07
2018-03-17T22:57:29.937Z,14.02
2018-03-17T22:59:57.888Z,13.20
2018-03-17T23:02:25.635Z,13.38
2018-03-17T23:04:53.324Z,14.73
2018-03-17T23:07:20.998Z,15.25
2018-03-17T23:09:48.849Z,10.20
2018-03-17T23:12:16.691Z,8.00
2018-03-17T23:14:44.528Z,14.10
2018-03-17T23:17:12.349Z,14.35
2018-03-17T23:19:40.261Z,13.27
2018-03-17T23:22:07.986Z,13.77
2018-03-17T23:24:35.833Z,11.45
2018-03-17T23:27:03.718Z,15.23
2018-03-17T23:29:31.588Z,15.82
2018-03-17T23:31:59.448Z,11.10
2018-03-17T23:34:27.117Z,13.68
2018-03-17T23:36:54.974Z,9.48
2018-03-17T23:39:22.657Z,11.77
2018-03-17T23:41:50.538Z,11.85
2018-03-17T23:44:18.474Z,10.93
2018-03-17T23:46:46.338Z,10.73
2018-03-17T23:49:14.004Z,13.82
2018-03-17T23:51:41.762Z,14.25
2018-03-17T23:54:09.532Z,13.45
2018-03-17T23:56:37.364Z,15.90
2018-03-17T23:59:05.256Z,10.18
